HP2PCO-13 Weather Reports


Display with metric or nautical units.
time (UTC)temp
F
wind
direction
speed
MPH
gust
MPH
rain 1hr
in
rain 24hr
in
rain mn
in
humidity
%
barometer
mb
20260831063603 77 0.0 0.0 0.00 0.00 0.00 801.7
20260831061559 77 0.0 0.0 0.00 0.00 0.00 801.7
20260831055555 77 0.0 0.0 0.00 0.00 0.00 801.7
20260831053551 77 0.0 0.0 0.00 0.00 0.00 801.7
20260831051547 77 0.0 0.0 0.00 0.00 0.00 801.7
20260831045542 77 0.0 0.0 0.00 0.00 0.00 801.7
20260831043539 77 0.0 0.0 0.00 0.00 0.00 801.7
20260831041534 77 0.0 0.0 0.00 0.00 0.00 801.7
20260831035530 77 0.0 0.0 0.00 0.00 0.00 801.7
20260831033526 77 0.0 0.0 0.00 0.00 0.00 801.7
20260831031522 77 0.0 0.0 0.00 0.00 0.00 801.7
20260831025518 77 0.0 0.0 0.00 0.00 0.00 801.7
20260831023514 77 0.0 0.0 0.00 0.00 0.00 801.7
20260831021509 77 0.0 0.0 0.00 0.00 0.00 801.7
20260831015505 77 0.0 0.0 0.00 0.00 0.00 801.7
20260831013501 77 0.0 0.0 0.00 0.00 0.00 801.7
20260831011457 77 0.0 0.0 0.00 0.00 0.00 801.7
20260831005453 77 0.0 0.0 0.00 0.00 0.00 801.7
20260831003449 77 0.0 0.0 0.00 0.00 0.00 801.7
20260831001445 77 0.0 0.0 0.00 0.00 0.00 801.7
20260830235440 77 0.0 0.0 0.00 0.00 0.00 801.7
20260830233436 77 0.0 0.0 0.00 0.00 0.00 801.7
20260830231432 77 0.0 0.0 0.00 0.00 0.00 801.7
20260830225428 77 0.0 0.0 0.00 0.00 0.00 801.7
20260830223424 77 0.0 0.0 0.00 0.00 0.00 801.7
20260830221419 77 0.0 0.0 0.00 0.00 0.00 801.7
20260830215416 77 0.0 0.0 0.00 0.00 0.00 801.7
20260830213411 77 0.0 0.0 0.00 0.00 0.00 801.7
20260830211407 77 0.0 0.0 0.00 0.00 0.00 801.7
20260830205403 77 0.0 0.0 0.00 0.00 0.00 801.7
20260830203359 77 0.0 0.0 0.00 0.00 0.00 801.7
20260830201355 77 0.0 0.0 0.00 0.00 0.00 801.7
20260830195351 77 0.0 0.0 0.00 0.00 0.00 801.7
20260830193346 77 0.0 0.0 0.00 0.00 0.00 801.7
20260830191342 77 0.0 0.0 0.00 0.00 0.00 801.7
20260830185338 77 0.0 0.0 0.00 0.00 0.00 801.7
20260830183334 77 0.0 0.0 0.00 0.00 0.00 801.7
20260830181330 77 0.0 0.0 0.00 0.00 0.00 801.7
20260830175326 77 0.0 0.0 0.00 0.00 0.00 801.7
20260830173322 77 0.0 0.0 0.00 0.00 0.00 801.7
20260830171317 77 0.0 0.0 0.00 0.00 0.00 801.7
20260830165313 77 0.0 0.0 0.00 0.00 0.00 801.7
20260830163309 77 0.0 0.0 0.00 0.00 0.00 801.7
20260830161305 77 0.0 0.0 0.00 0.00 0.00 801.7
20260830155301 79 0.0 0.0 0.00 0.00 0.00 1007.1
20260830153558 84 0.0 0.0 0.00 0.00 0.00 1013.4
20260830153158 83 0.0 0.0 0.00 0.00 0.00 1013.5
20260830152934 82 0.0 0.0 0.00 0.00 0.00 1013.5
20260830152856 82 0.0 0.0 0.00 0.00 0.00 1013.5
20260830152454 80 0.0 0.0 0.00 0.00 0.00 1013.6
20260830150450 80 0.0 0.0 0.00 0.00 0.00 1013.2
20260830145907 80 0.0 0.0 0.00 0.00 0.00 1013.2
20260830145352 81 0.0 0.0 0.00 0.00 0.00 1013.0
20260830143024 -22 0.0 0.0 0.00 0.00 0.00 805.3
20260830121550 -22 0.0 0.0 0.00 0.00 0.00 805.3
20260830115546 -22 0.0 0.0 0.00 0.00 0.00 805.3
20260830113542 -22 0.0 0.0 0.00 0.00 0.00 805.3
20260830111537 -22 0.0 0.0 0.00 0.00 0.00 805.3
20260830105533 -22 0.0 0.0 0.00 0.00 0.00 805.3
20260830103529 -22 0.0 0.0 0.00 0.00 0.00 805.3
20260830101525 -22 0.0 0.0 0.00 0.00 0.00 805.3
20260830095521 -22 0.0 0.0 0.00 0.00 0.00 805.3
20260830093517 -22 0.0 0.0 0.00 0.00 0.00 805.3
20260830091513 -22 0.0 0.0 0.00 0.00 0.00 805.3
20260830085508 -22 0.0 0.0 0.00 0.00 0.00 805.3
20260830083504 -22 0.0 0.0 0.00 0.00 0.00 805.3
20260830081500 -22 0.0 0.0 0.00 0.00 0.00 805.3
20260830075456 -22 0.0 0.0 0.00 0.00 0.00 805.3
20260830073452 -22 0.0 0.0 0.00 0.00 0.00 805.3
20260830071448 -22 0.0 0.0 0.00 0.00 0.00 805.3
20260830065444 -22 0.0 0.0 0.00 0.00 0.00 805.3